DAL3757 KMKE-KDTW
Flight info
| Callsign | DAL3757 |
|---|---|
| Flight time | 0h 40m |
| Altitude | 27000 |
| Route | SQUIB DUUDA RKCTY2 |
| Aircraft | A321/M-SDE3FGHIRWY/LB1 |
Departure
| Time | 2026-04-16 12:56 |
|---|---|
| Airport | General Mitchell International Airport (KMKE) |
Arrival
| Time | 2026-04-16 13:37 |
|---|---|
| Airport | Detroit Metropolitan Wayne County Airport (KDTW) |
| Time | Latitude | Longitude | Altitude | Speed | Heading |
|---|---|---|---|---|---|
| 2026-04-16 12:30 | 42.94870 | -87.89812 | 688 ft | 0 kts | 255° |
| 2026-04-16 12:49 | 42.94874 | -87.89785 | 682 ft | 4 kts | 262° |
| 2026-04-16 12:49 | 42.94876 | -87.89749 | 682 ft | 4 kts | 277° |
| 2026-04-16 12:49 | 42.94869 | -87.89717 | 684 ft | 4 kts | 314° |
| 2026-04-16 12:49 | 42.94854 | -87.89705 | 682 ft | 1 kts | 1° |
| 2026-04-16 12:50 | 42.94850 | -87.89705 | 683 ft | 0 kts | 1° |
| 2026-04-16 12:52 | 42.94855 | -87.89705 | 682 ft | 1 kts | 1° |
| 2026-04-16 12:52 | 42.94875 | -87.89705 | 682 ft | 6 kts | 1° |
| 2026-04-16 12:52 | 42.94944 | -87.89697 | 688 ft | 14 kts | 22° |
| 2026-04-16 12:53 | 42.95001 | -87.89590 | 683 ft | 16 kts | 26° |
| 2026-04-16 12:53 | 42.95131 | -87.89558 | 683 ft | 19 kts | 7° |
| 2026-04-16 12:53 | 42.95261 | -87.89537 | 684 ft | 18 kts | 8° |
| 2026-04-16 12:53 | 42.95383 | -87.89516 | 684 ft | 17 kts | 7° |
| 2026-04-16 12:54 | 42.95496 | -87.89498 | 684 ft | 16 kts | 7° |
| 2026-04-16 12:54 | 42.95600 | -87.89479 | 688 ft | 15 kts | 7° |
| 2026-04-16 12:54 | 42.95694 | -87.89463 | 685 ft | 10 kts | 7° |
| 2026-04-16 12:54 | 42.95739 | -87.89414 | 684 ft | 8 kts | 70° |
| 2026-04-16 12:55 | 42.95739 | -87.89345 | 683 ft | 7 kts | 96° |
| 2026-04-16 12:55 | 42.95711 | -87.89315 | 688 ft | 5 kts | 170° |
| 2026-04-16 12:55 | 42.95669 | -87.89318 | 684 ft | 11 kts | 185° |
| 2026-04-16 12:55 | 42.95507 | -87.89347 | 685 ft | 49 kts | 187° |
| 2026-04-16 12:56 | 42.94939 | -87.89445 | 682 ft | 113 kts | 187° |
| 2026-04-16 12:56 | 42.93989 | -87.89604 | 693 ft | 159 kts | 187° |
| 2026-04-16 12:56 | 42.92880 | -87.89797 | 1213 ft | 161 kts | 187° |
| 2026-04-16 12:56 | 42.91736 | -87.89995 | 1766 ft | 166 kts | 191° |
| 2026-04-16 12:57 | 42.89426 | -87.89713 | 2674 ft | 193 kts | 143° |
| 2026-04-16 12:57 | 42.88749 | -87.88041 | 2814 ft | 218 kts | 98° |
| 2026-04-16 12:57 | 42.88778 | -87.85891 | 2943 ft | 238 kts | 86° |
| 2026-04-16 12:58 | 42.88895 | -87.83515 | 3116 ft | 265 kts | 86° |
| 2026-04-16 12:58 | 42.89025 | -87.80939 | 3703 ft | 277 kts | 86° |
| 2026-04-16 12:58 | 42.89152 | -87.78298 | 4524 ft | 281 kts | 86° |
| 2026-04-16 12:58 | 42.89277 | -87.75622 | 5322 ft | 285 kts | 87° |
| 2026-04-16 12:59 | 42.89399 | -87.72890 | 6095 ft | 291 kts | 88° |
| 2026-04-16 12:59 | 42.89518 | -87.70107 | 6806 ft | 297 kts | 88° |
| 2026-04-16 12:59 | 42.89635 | -87.67277 | 7552 ft | 301 kts | 88° |
| 2026-04-16 13:00 | 42.89870 | -87.61495 | 9059 ft | 309 kts | 89° |
| 2026-04-16 13:00 | 42.89987 | -87.58549 | 9800 ft | 313 kts | 89° |
| 2026-04-16 13:00 | 42.90105 | -87.55551 | 10340 ft | 324 kts | 89° |
| 2026-04-16 13:00 | 42.90227 | -87.52371 | 10496 ft | 347 kts | 89° |
| 2026-04-16 13:01 | 42.90356 | -87.48973 | 10646 ft | 368 kts | 89° |
| 2026-04-16 13:01 | 42.90493 | -87.45435 | 11118 ft | 377 kts | 89° |
| 2026-04-16 13:01 | 42.90635 | -87.41839 | 11720 ft | 383 kts | 89° |
| 2026-04-16 13:01 | 42.90780 | -87.38195 | 12340 ft | 387 kts | 90° |
| 2026-04-16 13:02 | 42.90923 | -87.34507 | 12968 ft | 392 kts | 90° |
| 2026-04-16 13:02 | 42.91067 | -87.30777 | 13597 ft | 396 kts | 90° |
| 2026-04-16 13:02 | 42.91212 | -87.27002 | 14154 ft | 400 kts | 90° |
| 2026-04-16 13:02 | 42.91354 | -87.23192 | 14708 ft | 405 kts | 90° |
| 2026-04-16 13:03 | 42.91495 | -87.19336 | 15255 ft | 409 kts | 91° |
| 2026-04-16 13:03 | 42.91630 | -87.15447 | 15793 ft | 413 kts | 91° |
| 2026-04-16 13:03 | 42.91768 | -87.11515 | 16339 ft | 417 kts | 91° |
| 2026-04-16 13:03 | 42.91912 | -87.07545 | 16855 ft | 421 kts | 90° |
| 2026-04-16 13:04 | 42.92274 | -87.03542 | 17364 ft | 428 kts | 85° |
| 2026-04-16 13:04 | 42.92723 | -86.99501 | 17886 ft | 432 kts | 85° |
| 2026-04-16 13:04 | 42.93168 | -86.95427 | 18349 ft | 436 kts | 85° |
| 2026-04-16 13:04 | 42.93609 | -86.91312 | 18772 ft | 440 kts | 86° |
| 2026-04-16 13:05 | 42.94043 | -86.87222 | 19185 ft | 444 kts | 86° |
| 2026-04-16 13:05 | 42.94488 | -86.83036 | 19595 ft | 447 kts | 86° |
| 2026-04-16 13:05 | 42.94936 | -86.78816 | 20012 ft | 451 kts | 86° |
| 2026-04-16 13:05 | 42.95386 | -86.74561 | 20433 ft | 455 kts | 86° |
| 2026-04-16 13:06 | 42.95839 | -86.70267 | 20760 ft | 459 kts | 86° |
| 2026-04-16 13:06 | 42.96294 | -86.65954 | 20843 ft | 460 kts | 86° |
| 2026-04-16 13:06 | 42.96747 | -86.61636 | 20850 ft | 460 kts | 86° |
| 2026-04-16 13:06 | 42.97200 | -86.57315 | 20856 ft | 460 kts | 86° |
| 2026-04-16 13:07 | 42.97653 | -86.52989 | 20860 ft | 460 kts | 86° |
| 2026-04-16 13:07 | 42.98104 | -86.48671 | 20864 ft | 459 kts | 86° |
| 2026-04-16 13:07 | 42.98550 | -86.44355 | 20862 ft | 459 kts | 86° |
| 2026-04-16 13:07 | 42.98992 | -86.40044 | 20866 ft | 459 kts | 86° |
| 2026-04-16 13:08 | 42.99432 | -86.35722 | 20867 ft | 459 kts | 86° |
| 2026-04-16 13:08 | 42.99871 | -86.31403 | 20867 ft | 459 kts | 86° |
| 2026-04-16 13:08 | 43.00309 | -86.27090 | 20870 ft | 459 kts | 86° |
| 2026-04-16 13:08 | 43.00747 | -86.22774 | 20870 ft | 459 kts | 86° |
| 2026-04-16 13:09 | 43.01185 | -86.18456 | 20869 ft | 459 kts | 86° |
| 2026-04-16 13:09 | 43.01624 | -86.14144 | 20869 ft | 458 kts | 86° |
| 2026-04-16 13:09 | 43.02058 | -86.09831 | 20867 ft | 458 kts | 86° |
| 2026-04-16 13:09 | 43.02487 | -86.05514 | 20866 ft | 458 kts | 87° |
| 2026-04-16 13:10 | 43.02909 | -86.01196 | 20865 ft | 459 kts | 87° |
| 2026-04-16 13:10 | 43.03331 | -85.96879 | 20863 ft | 459 kts | 86° |
| 2026-04-16 13:10 | 43.03757 | -85.92557 | 20862 ft | 459 kts | 86° |
| 2026-04-16 13:10 | 43.04186 | -85.88232 | 20856 ft | 459 kts | 86° |
| 2026-04-16 13:11 | 43.04609 | -85.83914 | 20854 ft | 459 kts | 87° |
| 2026-04-16 13:11 | 43.05028 | -85.79589 | 20861 ft | 459 kts | 87° |
| 2026-04-16 13:11 | 43.05447 | -85.75263 | 20860 ft | 459 kts | 86° |
| 2026-04-16 13:11 | 43.05867 | -85.70940 | 20866 ft | 459 kts | 87° |
| 2026-04-16 13:12 | 43.06010 | -85.66614 | 20863 ft | 451 kts | 100° |
| 2026-04-16 13:12 | 43.05655 | -85.62375 | 20869 ft | 449 kts | 103° |
| 2026-04-16 13:12 | 43.05273 | -85.58136 | 20868 ft | 449 kts | 103° |
| 2026-04-16 13:12 | 43.04886 | -85.53904 | 20870 ft | 449 kts | 103° |
| 2026-04-16 13:13 | 43.04496 | -85.49660 | 20871 ft | 450 kts | 103° |
| 2026-04-16 13:13 | 43.04102 | -85.45416 | 20873 ft | 450 kts | 103° |
| 2026-04-16 13:13 | 43.03709 | -85.41175 | 20869 ft | 450 kts | 103° |
| 2026-04-16 13:13 | 43.03310 | -85.36924 | 20874 ft | 450 kts | 103° |
| 2026-04-16 13:14 | 43.02910 | -85.32679 | 20867 ft | 450 kts | 103° |
| 2026-04-16 13:14 | 43.02511 | -85.28433 | 20864 ft | 451 kts | 103° |
| 2026-04-16 13:14 | 43.02112 | -85.24183 | 20858 ft | 451 kts | 103° |
| 2026-04-16 13:14 | 43.01710 | -85.19933 | 20854 ft | 452 kts | 102° |
| 2026-04-16 13:15 | 43.01308 | -85.15676 | 20843 ft | 452 kts | 102° |
| 2026-04-16 13:15 | 43.00903 | -85.11414 | 20840 ft | 452 kts | 102° |
| 2026-04-16 13:15 | 43.00495 | -85.07158 | 20833 ft | 452 kts | 102° |
| 2026-04-16 13:15 | 43.00083 | -85.02896 | 20830 ft | 453 kts | 102° |
| 2026-04-16 13:16 | 42.99671 | -84.98635 | 20829 ft | 453 kts | 102° |
| 2026-04-16 13:16 | 42.99254 | -84.94367 | 20834 ft | 453 kts | 102° |
| 2026-04-16 13:16 | 42.98834 | -84.90106 | 20836 ft | 453 kts | 102° |
| 2026-04-16 13:16 | 42.98416 | -84.85850 | 20825 ft | 448 kts | 102° |
| 2026-04-16 13:17 | 42.98011 | -84.81689 | 20565 ft | 437 kts | 102° |
| 2026-04-16 13:17 | 42.97747 | -84.78978 | 20372 ft | 433 kts | 102° |
| 2026-04-16 13:17 | 42.97348 | -84.74929 | 20079 ft | 429 kts | 102° |
| 2026-04-16 13:17 | 42.96945 | -84.70907 | 19792 ft | 426 kts | 102° |
| 2026-04-16 13:18 | 42.96542 | -84.66912 | 19505 ft | 424 kts | 102° |
| 2026-04-16 13:18 | 42.96142 | -84.62940 | 19220 ft | 421 kts | 102° |
| 2026-04-16 13:18 | 42.95745 | -84.58985 | 18940 ft | 419 kts | 102° |
| 2026-04-16 13:18 | 42.95346 | -84.55060 | 18659 ft | 417 kts | 102° |
| 2026-04-16 13:19 | 42.94862 | -84.51184 | 18388 ft | 411 kts | 109° |
| 2026-04-16 13:19 | 42.93969 | -84.47545 | 18099 ft | 399 kts | 119° |
| 2026-04-16 13:19 | 42.92680 | -84.44257 | 18024 ft | 388 kts | 129° |
| 2026-04-16 13:19 | 42.91174 | -84.41198 | 17764 ft | 388 kts | 130° |
| 2026-04-16 13:20 | 42.89671 | -84.38154 | 17419 ft | 386 kts | 130° |
| 2026-04-16 13:20 | 42.88173 | -84.35119 | 17082 ft | 384 kts | 130° |
| 2026-04-16 13:20 | 42.86682 | -84.32105 | 16744 ft | 382 kts | 130° |
| 2026-04-16 13:20 | 42.85198 | -84.29110 | 16420 ft | 380 kts | 130° |
| 2026-04-16 13:21 | 42.83719 | -84.26135 | 16084 ft | 378 kts | 130° |
| 2026-04-16 13:21 | 42.82249 | -84.23184 | 15754 ft | 376 kts | 130° |
| 2026-04-16 13:21 | 42.80784 | -84.20245 | 15443 ft | 374 kts | 130° |
| 2026-04-16 13:21 | 42.79326 | -84.17319 | 15127 ft | 372 kts | 130° |
| 2026-04-16 13:22 | 42.77876 | -84.14415 | 14809 ft | 370 kts | 130° |
| 2026-04-16 13:22 | 42.76436 | -84.11525 | 14504 ft | 368 kts | 129° |
| 2026-04-16 13:22 | 42.75005 | -84.08648 | 14212 ft | 366 kts | 129° |
| 2026-04-16 13:22 | 42.73581 | -84.05788 | 13905 ft | 364 kts | 129° |
| 2026-04-16 13:23 | 42.72161 | -84.02946 | 13592 ft | 362 kts | 129° |
| 2026-04-16 13:23 | 42.70751 | -84.00129 | 13241 ft | 357 kts | 130° |
| 2026-04-16 13:23 | 42.69389 | -83.97337 | 12909 ft | 354 kts | 125° |
| 2026-04-16 13:23 | 42.68391 | -83.94283 | 12579 ft | 355 kts | 111° |
| 2026-04-16 13:24 | 42.67769 | -83.91048 | 12249 ft | 351 kts | 109° |
| 2026-04-16 13:24 | 42.67176 | -83.87853 | 11910 ft | 346 kts | 109° |
| 2026-04-16 13:24 | 42.66589 | -83.84703 | 11591 ft | 342 kts | 109° |
| 2026-04-16 13:24 | 42.66006 | -83.81596 | 11261 ft | 337 kts | 109° |
| 2026-04-16 13:25 | 42.65427 | -83.78525 | 10966 ft | 333 kts | 109° |
| 2026-04-16 13:25 | 42.64860 | -83.75526 | 10816 ft | 323 kts | 110° |
| 2026-04-16 13:25 | 42.64302 | -83.72594 | 10525 ft | 320 kts | 110° |
| 2026-04-16 13:25 | 42.63745 | -83.69684 | 10240 ft | 315 kts | 110° |
| 2026-04-16 13:26 | 42.63204 | -83.66852 | 10119 ft | 305 kts | 111° |
| 2026-04-16 13:26 | 42.62681 | -83.64105 | 9990 ft | 297 kts | 110° |
| 2026-04-16 13:26 | 42.62152 | -83.61419 | 9755 ft | 292 kts | 112° |
| 2026-04-16 13:26 | 42.61598 | -83.58784 | 9461 ft | 289 kts | 112° |
| 2026-04-16 13:27 | 42.61164 | -83.56776 | 9232 ft | 288 kts | 112° |
| 2026-04-16 13:27 | 42.60650 | -83.54352 | 8916 ft | 287 kts | 112° |
| 2026-04-16 13:27 | 42.60090 | -83.51755 | 8587 ft | 286 kts | 112° |
| 2026-04-16 13:27 | 42.59523 | -83.49158 | 8255 ft | 286 kts | 112° |
| 2026-04-16 13:28 | 42.58960 | -83.46580 | 7920 ft | 285 kts | 112° |
| 2026-04-16 13:28 | 42.58401 | -83.44012 | 7606 ft | 283 kts | 112° |
| 2026-04-16 13:28 | 42.57831 | -83.41458 | 7194 ft | 284 kts | 116° |
| 2026-04-16 13:28 | 42.56781 | -83.39230 | 6753 ft | 275 kts | 140° |
| 2026-04-16 13:29 | 42.55471 | -83.37418 | 6635 ft | 263 kts | 142° |
| 2026-04-16 13:29 | 42.54205 | -83.35730 | 6511 ft | 254 kts | 142° |
| 2026-04-16 13:29 | 42.52969 | -83.34084 | 6385 ft | 246 kts | 142° |
| 2026-04-16 13:29 | 42.51761 | -83.32477 | 6160 ft | 240 kts | 142° |
| 2026-04-16 13:30 | 42.50558 | -83.30872 | 5802 ft | 239 kts | 142° |
| 2026-04-16 13:30 | 42.49387 | -83.29320 | 5428 ft | 238 kts | 143° |
| 2026-04-16 13:30 | 42.48064 | -83.28003 | 5071 ft | 230 kts | 156° |
| 2026-04-16 13:30 | 42.46716 | -83.26911 | 4749 ft | 228 kts | 156° |
| 2026-04-16 13:31 | 42.45349 | -83.25849 | 4397 ft | 226 kts | 157° |
| 2026-04-16 13:31 | 42.43970 | -83.24803 | 4005 ft | 227 kts | 157° |
| 2026-04-16 13:31 | 42.42592 | -83.23762 | 3705 ft | 225 kts | 158° |
| 2026-04-16 13:31 | 42.41242 | -83.22759 | 3503 ft | 218 kts | 158° |
| 2026-04-16 13:32 | 42.39895 | -83.21937 | 3296 ft | 207 kts | 171° |
| 2026-04-16 13:32 | 42.38508 | -83.21748 | 3103 ft | 195 kts | 189° |
| 2026-04-16 13:32 | 42.37258 | -83.22141 | 3027 ft | 179 kts | 206° |
| 2026-04-16 13:32 | 42.36173 | -83.22901 | 2985 ft | 174 kts | 213° |
| 2026-04-16 13:33 | 42.35123 | -83.23679 | 2990 ft | 170 kts | 213° |
| 2026-04-16 13:33 | 42.34083 | -83.24450 | 2998 ft | 171 kts | 213° |
| 2026-04-16 13:33 | 42.33039 | -83.25224 | 2988 ft | 171 kts | 212° |
| 2026-04-16 13:33 | 42.32000 | -83.25993 | 2856 ft | 169 kts | 212° |
| 2026-04-16 13:34 | 42.30971 | -83.26755 | 2673 ft | 168 kts | 213° |
| 2026-04-16 13:34 | 42.29961 | -83.27501 | 2458 ft | 160 kts | 212° |
| 2026-04-16 13:34 | 42.29037 | -83.28183 | 2269 ft | 147 kts | 213° |
| 2026-04-16 13:34 | 42.28151 | -83.28838 | 2068 ft | 143 kts | 211° |
| 2026-04-16 13:35 | 42.27289 | -83.29476 | 1880 ft | 140 kts | 212° |
| 2026-04-16 13:35 | 42.26437 | -83.30106 | 1711 ft | 140 kts | 212° |
| 2026-04-16 13:35 | 42.25584 | -83.30736 | 1502 ft | 142 kts | 210° |
| 2026-04-16 13:35 | 42.24717 | -83.31376 | 1317 ft | 141 kts | 210° |
| 2026-04-16 13:36 | 42.23862 | -83.32007 | 1119 ft | 141 kts | 211° |
| 2026-04-16 13:36 | 42.23009 | -83.32642 | 940 ft | 141 kts | 211° |
| 2026-04-16 13:36 | 42.22163 | -83.33266 | 741 ft | 137 kts | 211° |
| 2026-04-16 13:36 | 42.21337 | -83.33863 | 656 ft | 125 kts | 211° |
| 2026-04-16 13:37 | 42.20706 | -83.34340 | 649 ft | 76 kts | 208° |
| 2026-04-16 13:37 | 42.20363 | -83.34592 | 652 ft | 45 kts | 208° |
| 2026-04-16 13:37 | 42.20200 | -83.34727 | 651 ft | 16 kts | 236° |
| 2026-04-16 13:37 | 42.20186 | -83.34854 | 650 ft | 12 kts | 268° |
| 2026-04-16 13:38 | 42.20183 | -83.34944 | 649 ft | 7 kts | 267° |
| 2026-04-16 13:38 | 42.20181 | -83.35000 | 649 ft | 7 kts | 267° |
| 2026-04-16 13:38 | 42.20178 | -83.35104 | 649 ft | 15 kts | 269° |
| 2026-04-16 13:38 | 42.20176 | -83.35281 | 649 ft | 23 kts | 268° |
| 2026-04-16 13:39 | 42.20172 | -83.35501 | 649 ft | 15 kts | 272° |
| 2026-04-16 13:39 | 42.20170 | -83.35596 | 649 ft | 10 kts | 266° |
| 2026-04-16 13:39 | 42.20168 | -83.35690 | 649 ft | 10 kts | 270° |
| 2026-04-16 13:39 | 42.20167 | -83.35784 | 649 ft | 10 kts | 269° |
| 2026-04-16 13:40 | 42.20164 | -83.35881 | 649 ft | 11 kts | 266° |
| 2026-04-16 13:40 | 42.20164 | -83.35971 | 649 ft | 8 kts | 275° |
| 2026-04-16 13:40 | 42.20204 | -83.36013 | 649 ft | 10 kts | 349° |
| 2026-04-16 13:40 | 42.20280 | -83.36006 | 649 ft | 10 kts | 20° |
| 2026-04-16 13:41 | 42.20334 | -83.35969 | 651 ft | 11 kts | 29° |
| 2026-04-16 13:41 | 42.20415 | -83.35909 | 649 ft | 11 kts | 28° |
| 2026-04-16 13:41 | 42.20467 | -83.35871 | 650 ft | 6 kts | 28° |
| 2026-04-16 13:41 | 42.20500 | -83.35846 | 649 ft | 8 kts | 28° |
| 2026-04-16 13:42 | 42.20561 | -83.35832 | 649 ft | 8 kts | 335° |
| 2026-04-16 13:42 | 42.20578 | -83.35869 | 649 ft | 2 kts | 289° |
| 2026-04-16 13:42 | 42.20587 | -83.35895 | 650 ft | 5 kts | 295° |
| 2026-04-16 13:42 | 42.20592 | -83.35909 | 649 ft | 1 kts | 299° |
| 2026-04-16 13:43 | 42.20594 | -83.35914 | 649 ft | 0 kts | 299° |